sensor_id;sensor_type;location;lat;lon;timestamp;P1;durP1;ratioP1;P2;durP2;ratioP2
23288;SDS011;11813;50.834;4.280;2023-03-23T00:00:50;5.50;;;3.83;;
23288;SDS011;11813;50.834;4.280;2023-03-23T00:03:16;7.07;;;4.73;;
23288;SDS011;11813;50.834;4.280;2023-03-23T00:05:42;6.57;;;4.10;;
23288;SDS011;11813;50.834;4.280;2023-03-23T00:08:14;6.53;;;4.50;;
23288;SDS011;11813;50.834;4.280;2023-03-23T00:10:49;11.07;;;6.40;;
23288;SDS011;11813;50.834;4.280;2023-03-23T00:13:21;10.77;;;6.13;;
23288;SDS011;11813;50.834;4.280;2023-03-23T00:15:48;10.57;;;6.40;;
23288;SDS011;11813;50.834;4.280;2023-03-23T00:18:17;12.13;;;7.23;;
23288;SDS011;11813;50.834;4.280;2023-03-23T00:20:50;14.70;;;6.47;;
23288;SDS011;11813;50.834;4.280;2023-03-23T00:23:20;9.43;;;6.60;;
23288;SDS011;11813;50.834;4.280;2023-03-23T00:25:51;9.70;;;6.03;;
23288;SDS011;11813;50.834;4.280;2023-03-23T00:28:21;9.53;;;6.10;;
23288;SDS011;11813;50.834;4.280;2023-03-23T00:30:56;10.47;;;6.03;;
23288;SDS011;11813;50.834;4.280;2023-03-23T00:33:24;9.07;;;5.43;;
23288;SDS011;11813;50.834;4.280;2023-03-23T00:35:51;9.37;;;5.70;;
23288;SDS011;11813;50.834;4.280;2023-03-23T00:38:18;9.57;;;5.53;;
23288;SDS011;11813;50.834;4.280;2023-03-23T00:40:44;7.83;;;5.73;;
23288;SDS011;11813;50.834;4.280;2023-03-23T00:43:12;8.17;;;5.80;;
23288;SDS011;11813;50.834;4.280;2023-03-23T00:45:39;8.83;;;4.97;;
23288;SDS011;11813;50.834;4.280;2023-03-23T00:48:04;14.07;;;5.87;;
23288;SDS011;11813;50.834;4.280;2023-03-23T00:50:30;7.50;;;5.47;;
23288;SDS011;11813;50.834;4.280;2023-03-23T00:52:56;11.70;;;5.53;;
23288;SDS011;11813;50.834;4.280;2023-03-23T00:55:23;7.63;;;5.00;;
23288;SDS011;11813;50.834;4.280;2023-03-23T00:57:49;7.23;;;4.93;;
23288;SDS011;11813;50.834;4.280;2023-03-23T01:00:16;6.57;;;4.80;;
23288;SDS011;11813;50.834;4.280;2023-03-23T01:02:43;4.80;;;4.00;;
23288;SDS011;11813;50.834;4.280;2023-03-23T01:05:10;7.03;;;5.33;;
23288;SDS011;11813;50.834;4.280;2023-03-23T01:07:36;8.47;;;5.33;;
23288;SDS011;11813;50.834;4.280;2023-03-23T01:10:02;8.03;;;4.60;;
23288;SDS011;11813;50.834;4.280;2023-03-23T01:12:29;8.67;;;4.73;;
23288;SDS011;11813;50.834;4.280;2023-03-23T01:14:55;8.70;;;4.70;;
23288;SDS011;11813;50.834;4.280;2023-03-23T01:17:21;6.73;;;4.87;;
23288;SDS011;11813;50.834;4.280;2023-03-23T01:19:46;9.07;;;5.60;;
23288;SDS011;11813;50.834;4.280;2023-03-23T01:22:12;6.63;;;5.40;;
23288;SDS011;11813;50.834;4.280;2023-03-23T01:24:37;9.67;;;5.80;;
23288;SDS011;11813;50.834;4.280;2023-03-23T01:27:03;9.83;;;5.40;;
23288;SDS011;11813;50.834;4.280;2023-03-23T01:29:32;9.80;;;6.10;;
23288;SDS011;11813;50.834;4.280;2023-03-23T01:31:58;7.87;;;6.03;;
23288;SDS011;11813;50.834;4.280;2023-03-23T01:34:24;8.50;;;5.17;;
23288;SDS011;11813;50.834;4.280;2023-03-23T01:36:50;6.10;;;5.30;;
23288;SDS011;11813;50.834;4.280;2023-03-23T01:39:15;8.47;;;5.30;;
23288;SDS011;11813;50.834;4.280;2023-03-23T01:41:41;8.27;;;5.17;;
23288;SDS011;11813;50.834;4.280;2023-03-23T01:46:55;7.70;;;4.50;;
23288;SDS011;11813;50.834;4.280;2023-03-23T01:49:24;5.90;;;4.40;;
23288;SDS011;11813;50.834;4.280;2023-03-23T01:54:42;7.43;;;4.13;;
23288;SDS011;11813;50.834;4.280;2023-03-23T01:57:14;5.77;;;3.93;;
23288;SDS011;11813;50.834;4.280;2023-03-23T01:59:42;8.07;;;3.60;;
23288;SDS011;11813;50.834;4.280;2023-03-23T02:02:10;11.50;;;4.83;;
23288;SDS011;11813;50.834;4.280;2023-03-23T02:04:37;4.67;;;3.13;;
23288;SDS011;11813;50.834;4.280;2023-03-23T02:07:05;10.03;;;3.57;;
23288;SDS011;11813;50.834;4.280;2023-03-23T02:09:31;4.33;;;3.00;;
23288;SDS011;11813;50.834;4.280;2023-03-23T02:11:56;4.03;;;2.93;;
23288;SDS011;11813;50.834;4.280;2023-03-23T02:14:23;2.60;;;2.40;;
23288;SDS011;11813;50.834;4.280;2023-03-23T02:41:38;2.57;;;1.60;;
23288;SDS011;11813;50.834;4.280;2023-03-23T02:44:07;2.90;;;1.87;;
23288;SDS011;11813;50.834;4.280;2023-03-23T02:46:34;2.67;;;1.80;;
23288;SDS011;11813;50.834;4.280;2023-03-23T02:49:01;3.37;;;1.80;;
23288;SDS011;11813;50.834;4.280;2023-03-23T02:51:30;2.83;;;1.63;;
23288;SDS011;11813;50.834;4.280;2023-03-23T02:53:59;3.17;;;1.70;;
23288;SDS011;11813;50.834;4.280;2023-03-23T02:56:26;4.33;;;1.90;;
23288;SDS011;11813;50.834;4.280;2023-03-23T02:58:54;3.07;;;1.80;;
23288;SDS011;11813;50.834;4.280;2023-03-23T03:03:57;3.10;;;1.70;;
23288;SDS011;11813;50.834;4.280;2023-03-23T03:09:21;3.33;;;1.70;;
23288;SDS011;11813;50.834;4.280;2023-03-23T03:11:50;2.60;;;1.50;;
23288;SDS011;11813;50.834;4.280;2023-03-23T03:15:22;3.07;;;1.33;;
23288;SDS011;11813;50.834;4.280;2023-03-23T03:17:24;3.67;;;1.90;;
23288;SDS011;11813;50.834;4.280;2023-03-23T03:19:56;3.50;;;1.70;;
23288;SDS011;11813;50.834;4.280;2023-03-23T03:22:33;2.77;;;1.43;;
23288;SDS011;11813;50.834;4.280;2023-03-23T03:25:07;3.67;;;1.63;;
23288;SDS011;11813;50.834;4.280;2023-03-23T03:27:34;2.70;;;1.50;;
23288;SDS011;11813;50.834;4.280;2023-03-23T03:30:00;3.77;;;1.37;;
23288;SDS011;11813;50.834;4.280;2023-03-23T03:32:31;2.37;;;1.30;;
23288;SDS011;11813;50.834;4.280;2023-03-23T03:35:06;4.57;;;1.47;;
23288;SDS011;11813;50.834;4.280;2023-03-23T03:37:35;6.37;;;1.53;;
23288;SDS011;11813;50.834;4.280;2023-03-23T03:40:07;5.50;;;1.70;;
23288;SDS011;11813;50.834;4.280;2023-03-23T03:42:38;4.33;;;1.87;;
23288;SDS011;11813;50.834;4.280;2023-03-23T03:45:06;5.30;;;1.40;;
23288;SDS011;11813;50.834;4.280;2023-03-23T03:47:33;4.30;;;1.70;;
23288;SDS011;11813;50.834;4.280;2023-03-23T03:49:58;1.77;;;1.50;;
23288;SDS011;11813;50.834;4.280;2023-03-23T03:52:24;3.63;;;1.87;;
23288;SDS011;11813;50.834;4.280;2023-03-23T03:54:50;5.37;;;2.07;;
23288;SDS011;11813;50.834;4.280;2023-03-23T03:57:16;6.57;;;1.60;;
23288;SDS011;11813;50.834;4.280;2023-03-23T03:59:42;3.23;;;1.77;;
23288;SDS011;11813;50.834;4.280;2023-03-23T04:02:08;4.80;;;1.90;;
23288;SDS011;11813;50.834;4.280;2023-03-23T04:04:34;5.20;;;1.73;;
23288;SDS011;11813;50.834;4.280;2023-03-23T04:07:00;5.87;;;1.70;;
23288;SDS011;11813;50.834;4.280;2023-03-23T04:09:27;4.30;;;1.63;;
23288;SDS011;11813;50.834;4.280;2023-03-23T04:11:53;6.27;;;1.97;;
23288;SDS011;11813;50.834;4.280;2023-03-23T04:14:18;7.33;;;1.63;;
23288;SDS011;11813;50.834;4.280;2023-03-23T04:16:44;8.60;;;1.43;;
23288;SDS011;11813;50.834;4.280;2023-03-23T04:19:10;5.53;;;1.43;;
23288;SDS011;11813;50.834;4.280;2023-03-23T04:21:37;9.60;;;2.43;;
23288;SDS011;11813;50.834;4.280;2023-03-23T04:24:03;4.60;;;1.40;;
23288;SDS011;11813;50.834;4.280;2023-03-23T04:26:29;3.33;;;1.80;;
23288;SDS011;11813;50.834;4.280;2023-03-23T04:28:55;6.67;;;1.50;;
23288;SDS011;11813;50.834;4.280;2023-03-23T04:31:21;9.17;;;1.53;;
23288;SDS011;11813;50.834;4.280;2023-03-23T04:33:49;2.90;;;1.80;;
23288;SDS011;11813;50.834;4.280;2023-03-23T04:36:17;8.30;;;1.60;;
23288;SDS011;11813;50.834;4.280;2023-03-23T04:38:43;6.47;;;2.07;;
23288;SDS011;11813;50.834;4.280;2023-03-23T04:41:08;5.60;;;1.93;;
23288;SDS011;11813;50.834;4.280;2023-03-23T04:43:34;3.27;;;1.40;;
23288;SDS011;11813;50.834;4.280;2023-03-23T04:46:06;6.30;;;1.73;;
23288;SDS011;11813;50.834;4.280;2023-03-23T04:48:33;3.77;;;2.00;;
23288;SDS011;11813;50.834;4.280;2023-03-23T04:51:01;3.77;;;1.43;;
23288;SDS011;11813;50.834;4.280;2023-03-23T04:53:28;4.33;;;1.93;;
23288;SDS011;11813;50.834;4.280;2023-03-23T04:55:57;7.83;;;1.40;;
23288;SDS011;11813;50.834;4.280;2023-03-23T04:58:23;4.70;;;1.60;;
23288;SDS011;11813;50.834;4.280;2023-03-23T05:00:49;4.53;;;2.47;;
23288;SDS011;11813;50.834;4.280;2023-03-23T05:03:16;5.37;;;1.53;;
23288;SDS011;11813;50.834;4.280;2023-03-23T05:05:42;3.20;;;1.83;;
23288;SDS011;11813;50.834;4.280;2023-03-23T05:08:11;3.40;;;1.53;;
23288;SDS011;11813;50.834;4.280;2023-03-23T05:10:38;4.57;;;1.30;;
23288;SDS011;11813;50.834;4.280;2023-03-23T05:13:03;4.00;;;1.83;;
23288;SDS011;11813;50.834;4.280;2023-03-23T05:15:29;3.37;;;1.30;;
23288;SDS011;11813;50.834;4.280;2023-03-23T05:17:55;2.67;;;1.40;;
23288;SDS011;11813;50.834;4.280;2023-03-23T05:20:20;6.27;;;1.67;;
23288;SDS011;11813;50.834;4.280;2023-03-23T05:22:46;3.33;;;1.40;;
23288;SDS011;11813;50.834;4.280;2023-03-23T05:25:16;3.30;;;1.50;;
23288;SDS011;11813;50.834;4.280;2023-03-23T05:27:46;4.20;;;1.43;;
23288;SDS011;11813;50.834;4.280;2023-03-23T05:30:17;7.53;;;1.90;;
23288;SDS011;11813;50.834;4.280;2023-03-23T05:32:44;4.47;;;1.53;;
23288;SDS011;11813;50.834;4.280;2023-03-23T05:35:10;3.70;;;1.60;;
23288;SDS011;11813;50.834;4.280;2023-03-23T05:37:37;4.23;;;1.77;;
23288;SDS011;11813;50.834;4.280;2023-03-23T05:40:03;6.70;;;2.00;;
23288;SDS011;11813;50.834;4.280;2023-03-23T05:42:34;4.43;;;1.70;;
23288;SDS011;11813;50.834;4.280;2023-03-23T05:45:01;3.80;;;1.50;;
23288;SDS011;11813;50.834;4.280;2023-03-23T05:47:28;5.13;;;1.70;;
23288;SDS011;11813;50.834;4.280;2023-03-23T05:49:54;4.13;;;1.60;;
23288;SDS011;11813;50.834;4.280;2023-03-23T05:52:19;5.47;;;1.87;;
23288;SDS011;11813;50.834;4.280;2023-03-23T05:54:45;8.17;;;1.80;;
23288;SDS011;11813;50.834;4.280;2023-03-23T05:57:11;6.93;;;2.17;;
23288;SDS011;11813;50.834;4.280;2023-03-23T05:59:36;5.67;;;1.40;;
23288;SDS011;11813;50.834;4.280;2023-03-23T06:02:03;4.27;;;1.43;;
23288;SDS011;11813;50.834;4.280;2023-03-23T06:04:30;7.60;;;1.63;;
23288;SDS011;11813;50.834;4.280;2023-03-23T06:06:58;7.13;;;2.10;;
23288;SDS011;11813;50.834;4.280;2023-03-23T06:09:27;7.43;;;1.53;;
23288;SDS011;11813;50.834;4.280;2023-03-23T06:11:53;6.87;;;1.90;;
23288;SDS011;11813;50.834;4.280;2023-03-23T06:14:18;4.10;;;1.83;;
23288;SDS011;11813;50.834;4.280;2023-03-23T06:16:44;6.97;;;1.73;;
23288;SDS011;11813;50.834;4.280;2023-03-23T06:19:09;7.63;;;1.73;;
23288;SDS011;11813;50.834;4.280;2023-03-23T06:21:36;6.43;;;2.00;;
23288;SDS011;11813;50.834;4.280;2023-03-23T06:24:02;5.23;;;1.70;;
23288;SDS011;11813;50.834;4.280;2023-03-23T06:26:30;6.93;;;1.90;;
23288;SDS011;11813;50.834;4.280;2023-03-23T06:28:58;7.97;;;1.63;;
23288;SDS011;11813;50.834;4.280;2023-03-23T06:31:24;10.57;;;1.63;;
23288;SDS011;11813;50.834;4.280;2023-03-23T06:33:51;6.20;;;2.10;;
23288;SDS011;11813;50.834;4.280;2023-03-23T06:36:17;7.23;;;1.73;;
23288;SDS011;11813;50.834;4.280;2023-03-23T06:38:44;5.77;;;2.00;;
23288;SDS011;11813;50.834;4.280;2023-03-23T06:41:10;10.47;;;2.20;;
23288;SDS011;11813;50.834;4.280;2023-03-23T06:43:36;8.73;;;1.80;;
23288;SDS011;11813;50.834;4.280;2023-03-23T06:46:04;8.20;;;2.47;;
23288;SDS011;11813;50.834;4.280;2023-03-23T06:48:30;6.77;;;2.10;;
23288;SDS011;11813;50.834;4.280;2023-03-23T06:50:57;4.53;;;1.60;;
23288;SDS011;11813;50.834;4.280;2023-03-23T06:53:22;6.60;;;1.80;;
23288;SDS011;11813;50.834;4.280;2023-03-23T06:55:48;5.73;;;1.83;;
23288;SDS011;11813;50.834;4.280;2023-03-23T06:58:15;6.97;;;2.03;;
23288;SDS011;11813;50.834;4.280;2023-03-23T07:00:41;4.40;;;1.70;;
23288;SDS011;11813;50.834;4.280;2023-03-23T07:03:06;1.27;;;0.90;;
23288;SDS011;11813;50.834;4.280;2023-03-23T07:05:33;4.10;;;1.17;;
23288;SDS011;11813;50.834;4.280;2023-03-23T07:08:00;1.90;;;0.70;;
23288;SDS011;11813;50.834;4.280;2023-03-23T07:10:27;4.60;;;0.80;;
23288;SDS011;11813;50.834;4.280;2023-03-23T07:12:53;2.10;;;0.80;;
23288;SDS011;11813;50.834;4.280;2023-03-23T07:15:18;4.27;;;0.80;;
23288;SDS011;11813;50.834;4.280;2023-03-23T07:17:44;2.93;;;1.03;;
23288;SDS011;11813;50.834;4.280;2023-03-23T07:20:10;1.90;;;1.00;;
23288;SDS011;11813;50.834;4.280;2023-03-23T07:22:36;1.77;;;1.00;;
23288;SDS011;11813;50.834;4.280;2023-03-23T07:25:03;0.90;;;0.73;;
23288;SDS011;11813;50.834;4.280;2023-03-23T07:27:29;1.83;;;1.20;;
23288;SDS011;11813;50.834;4.280;2023-03-23T07:29:55;4.70;;;1.03;;
23288;SDS011;11813;50.834;4.280;2023-03-23T07:32:22;2.03;;;1.10;;
23288;SDS011;11813;50.834;4.280;2023-03-23T07:34:49;3.20;;;1.43;;
23288;SDS011;11813;50.834;4.280;2023-03-23T07:37:14;5.53;;;1.30;;
23288;SDS011;11813;50.834;4.280;2023-03-23T07:39:40;5.87;;;1.50;;
23288;SDS011;11813;50.834;4.280;2023-03-23T07:42:07;4.37;;;1.53;;
23288;SDS011;11813;50.834;4.280;2023-03-23T07:44:33;1.63;;;1.30;;
23288;SDS011;11813;50.834;4.280;2023-03-23T07:46:59;3.07;;;1.50;;
23288;SDS011;11813;50.834;4.280;2023-03-23T07:49:24;1.60;;;1.20;;
23288;SDS011;11813;50.834;4.280;2023-03-23T07:51:51;3.43;;;1.63;;
23288;SDS011;11813;50.834;4.280;2023-03-23T07:54:17;4.77;;;1.73;;
23288;SDS011;11813;50.834;4.280;2023-03-23T07:56:43;5.67;;;2.00;;
23288;SDS011;11813;50.834;4.280;2023-03-23T07:59:10;7.20;;;1.70;;
23288;SDS011;11813;50.834;4.280;2023-03-23T08:01:37;2.17;;;1.50;;
23288;SDS011;11813;50.834;4.280;2023-03-23T08:04:03;2.67;;;1.37;;
23288;SDS011;11813;50.834;4.280;2023-03-23T08:06:31;2.57;;;1.50;;
23288;SDS011;11813;50.834;4.280;2023-03-23T08:08:58;4.40;;;1.23;;
23288;SDS011;11813;50.834;4.280;2023-03-23T08:11:24;3.13;;;1.23;;
23288;SDS011;11813;50.834;4.280;2023-03-23T08:13:50;1.37;;;0.80;;
23288;SDS011;11813;50.834;4.280;2023-03-23T08:16:17;3.40;;;1.40;;
23288;SDS011;11813;50.834;4.280;2023-03-23T08:18:44;3.07;;;1.13;;
23288;SDS011;11813;50.834;4.280;2023-03-23T08:21:11;5.13;;;1.07;;
23288;SDS011;11813;50.834;4.280;2023-03-23T08:23:38;2.13;;;0.90;;
23288;SDS011;11813;50.834;4.280;2023-03-23T08:26:04;2.37;;;1.00;;
23288;SDS011;11813;50.834;4.280;2023-03-23T08:28:32;3.13;;;0.80;;
23288;SDS011;11813;50.834;4.280;2023-03-23T08:30:59;3.37;;;0.80;;
23288;SDS011;11813;50.834;4.280;2023-03-23T08:33:24;2.90;;;1.10;;
23288;SDS011;11813;50.834;4.280;2023-03-23T08:35:54;5.10;;;1.07;;
23288;SDS011;11813;50.834;4.280;2023-03-23T08:38:21;2.70;;;1.10;;
23288;SDS011;11813;50.834;4.280;2023-03-23T08:40:47;3.47;;;1.10;;
23288;SDS011;11813;50.834;4.280;2023-03-23T08:43:13;4.47;;;1.30;;
23288;SDS011;11813;50.834;4.280;2023-03-23T08:45:40;2.30;;;1.20;;
23288;SDS011;11813;50.834;4.280;2023-03-23T08:48:06;2.83;;;1.23;;
23288;SDS011;11813;50.834;4.280;2023-03-23T08:50:32;6.70;;;1.03;;
23288;SDS011;11813;50.834;4.280;2023-03-23T08:52:58;2.27;;;1.00;;
23288;SDS011;11813;50.834;4.280;2023-03-23T08:55:24;2.67;;;1.40;;
23288;SDS011;11813;50.834;4.280;2023-03-23T08:57:51;5.90;;;1.17;;
23288;SDS011;11813;50.834;4.280;2023-03-23T09:00:17;1.77;;;1.20;;
23288;SDS011;11813;50.834;4.280;2023-03-23T09:02:45;2.13;;;1.30;;
23288;SDS011;11813;50.834;4.280;2023-03-23T09:05:18;4.63;;;1.60;;
23288;SDS011;11813;50.834;4.280;2023-03-23T09:07:47;3.60;;;1.57;;
23288;SDS011;11813;50.834;4.280;2023-03-23T09:10:14;2.37;;;1.10;;
23288;SDS011;11813;50.834;4.280;2023-03-23T09:12:41;3.53;;;1.30;;
23288;SDS011;11813;50.834;4.280;2023-03-23T09:15:08;1.57;;;1.27;;
23288;SDS011;11813;50.834;4.280;2023-03-23T09:17:36;3.30;;;1.30;;
23288;SDS011;11813;50.834;4.280;2023-03-23T09:20:07;3.63;;;1.30;;
23288;SDS011;11813;50.834;4.280;2023-03-23T09:22:36;4.80;;;1.27;;
23288;SDS011;11813;50.834;4.280;2023-03-23T09:25:10;3.70;;;1.30;;
23288;SDS011;11813;50.834;4.280;2023-03-23T09:27:40;2.03;;;0.90;;
23288;SDS011;11813;50.834;4.280;2023-03-23T09:30:07;2.37;;;1.27;;
23288;SDS011;11813;50.834;4.280;2023-03-23T09:32:35;1.90;;;1.27;;
23288;SDS011;11813;50.834;4.280;2023-03-23T09:35:02;2.03;;;0.90;;
23288;SDS011;11813;50.834;4.280;2023-03-23T09:37:29;4.20;;;1.20;;
23288;SDS011;11813;50.834;4.280;2023-03-23T09:39:55;2.77;;;1.23;;
23288;SDS011;11813;50.834;4.280;2023-03-23T09:50:26;4.93;;;1.50;;
23288;SDS011;11813;50.834;4.280;2023-03-23T09:53:01;1.33;;;1.00;;
23288;SDS011;11813;50.834;4.280;2023-03-23T09:55:34;2.23;;;1.57;;
23288;SDS011;11813;50.834;4.280;2023-03-23T10:00:55;2.10;;;1.50;;
23288;SDS011;11813;50.834;4.280;2023-03-23T10:03:42;2.37;;;1.43;;
23288;SDS011;11813;50.834;4.280;2023-03-23T10:06:10;2.90;;;1.40;;
23288;SDS011;11813;50.834;4.280;2023-03-23T10:08:55;2.83;;;1.40;;
23288;SDS011;11813;50.834;4.280;2023-03-23T10:11:26;3.23;;;1.77;;
23288;SDS011;11813;50.834;4.280;2023-03-23T10:16:42;1.80;;;1.47;;
23288;SDS011;11813;50.834;4.280;2023-03-23T10:19:20;6.87;;;1.73;;
23288;SDS011;11813;50.834;4.280;2023-03-23T10:21:54;8.23;;;2.53;;
23288;SDS011;11813;50.834;4.280;2023-03-23T10:24:29;4.50;;;2.07;;
23288;SDS011;11813;50.834;4.280;2023-03-23T10:30:24;4.63;;;2.07;;
23288;SDS011;11813;50.834;4.280;2023-03-23T10:33:11;4.43;;;1.90;;
23288;SDS011;11813;50.834;4.280;2023-03-23T10:35:47;5.00;;;2.50;;
23288;SDS011;11813;50.834;4.280;2023-03-23T10:38:21;6.03;;;2.17;;
23288;SDS011;11813;50.834;4.280;2023-03-23T10:41:12;4.53;;;2.03;;
23288;SDS011;11813;50.834;4.280;2023-03-23T10:43:43;4.73;;;2.13;;
23288;SDS011;11813;50.834;4.280;2023-03-23T10:48:54;6.80;;;2.53;;
23288;SDS011;11813;50.834;4.280;2023-03-23T10:51:24;3.77;;;2.50;;
23288;SDS011;11813;50.834;4.280;2023-03-23T10:53:58;4.97;;;2.33;;
23288;SDS011;11813;50.834;4.280;2023-03-23T10:56:27;7.17;;;2.40;;
23288;SDS011;11813;50.834;4.280;2023-03-23T10:58:59;5.30;;;2.40;;
23288;SDS011;11813;50.834;4.280;2023-03-23T11:01:36;3.70;;;2.53;;
23288;SDS011;11813;50.834;4.280;2023-03-23T11:04:02;8.57;;;2.63;;
23288;SDS011;11813;50.834;4.280;2023-03-23T11:06:29;6.70;;;2.80;;
23288;SDS011;11813;50.834;4.280;2023-03-23T11:09:08;6.73;;;2.53;;
23288;SDS011;11813;50.834;4.280;2023-03-23T11:11:38;6.30;;;2.30;;
23288;SDS011;11813;50.834;4.280;2023-03-23T11:14:24;6.60;;;2.50;;
23288;SDS011;11813;50.834;4.280;2023-03-23T11:16:54;6.73;;;2.37;;
23288;SDS011;11813;50.834;4.280;2023-03-23T11:19:22;7.80;;;2.20;;
23288;SDS011;11813;50.834;4.280;2023-03-23T11:21:49;8.13;;;2.47;;
23288;SDS011;11813;50.834;4.280;2023-03-23T11:24:17;6.67;;;2.60;;
23288;SDS011;11813;50.834;4.280;2023-03-23T11:26:43;12.47;;;2.67;;
23288;SDS011;11813;50.834;4.280;2023-03-23T11:29:12;7.27;;;2.70;;
23288;SDS011;11813;50.834;4.280;2023-03-23T11:31:46;8.60;;;2.17;;
23288;SDS011;11813;50.834;4.280;2023-03-23T11:37:03;5.13;;;2.23;;
23288;SDS011;11813;50.834;4.280;2023-03-23T11:39:33;5.63;;;2.00;;
23288;SDS011;11813;50.834;4.280;2023-03-23T11:42:12;4.60;;;2.00;;
23288;SDS011;11813;50.834;4.280;2023-03-23T11:44:44;8.60;;;2.33;;
23288;SDS011;11813;50.834;4.280;2023-03-23T11:58:11;3.13;;;1.70;;
23288;SDS011;11813;50.834;4.280;2023-03-23T12:00:40;5.53;;;2.40;;
23288;SDS011;11813;50.834;4.280;2023-03-23T12:03:20;7.77;;;2.27;;
23288;SDS011;11813;50.834;4.280;2023-03-23T12:14:39;4.57;;;1.83;;
23288;SDS011;11813;50.834;4.280;2023-03-23T12:22:46;6.87;;;1.77;;
23288;SDS011;11813;50.834;4.280;2023-03-23T12:42:14;5.90;;;2.27;;
23288;SDS011;11813;50.834;4.280;2023-03-23T12:47:45;9.90;;;2.03;;
23288;SDS011;11813;50.834;4.280;2023-03-23T12:55:51;6.17;;;2.50;;
23288;SDS011;11813;50.834;4.280;2023-03-23T12:58:20;8.40;;;2.70;;
23288;SDS011;11813;50.834;4.280;2023-03-23T13:03:38;9.37;;;2.60;;
23288;SDS011;11813;50.834;4.280;2023-03-23T13:06:15;15.87;;;2.60;;
23288;SDS011;11813;50.834;4.280;2023-03-23T13:09:05;6.10;;;2.30;;
23288;SDS011;11813;50.834;4.280;2023-03-23T13:11:39;7.90;;;2.73;;
23288;SDS011;11813;50.834;4.280;2023-03-23T13:14:15;5.47;;;2.47;;
23288;SDS011;11813;50.834;4.280;2023-03-23T13:22:00;6.60;;;2.13;;
23288;SDS011;11813;50.834;4.280;2023-03-23T13:24:33;6.43;;;2.10;;
23288;SDS011;11813;50.834;4.280;2023-03-23T13:27:04;7.07;;;2.33;;
23288;SDS011;11813;50.834;4.280;2023-03-23T13:29:32;7.40;;;2.10;;
23288;SDS011;11813;50.834;4.280;2023-03-23T13:32:05;5.60;;;1.93;;
23288;SDS011;11813;50.834;4.280;2023-03-23T13:34:35;8.63;;;2.20;;
23288;SDS011;11813;50.834;4.280;2023-03-23T13:37:21;7.60;;;1.93;;
23288;SDS011;11813;50.834;4.280;2023-03-23T13:42:27;7.03;;;1.97;;
23288;SDS011;11813;50.834;4.280;2023-03-23T13:47:40;13.40;;;2.33;;
23288;SDS011;11813;50.834;4.280;2023-03-23T14:03:59;7.97;;;2.70;;
23288;SDS011;11813;50.834;4.280;2023-03-23T14:06:13;8.20;;;2.20;;
23288;SDS011;11813;50.834;4.280;2023-03-23T14:08:41;10.67;;;2.40;;
23288;SDS011;11813;50.834;4.280;2023-03-23T14:11:13;13.23;;;3.33;;
23288;SDS011;11813;50.834;4.280;2023-03-23T14:14:02;12.97;;;2.93;;
23288;SDS011;11813;50.834;4.280;2023-03-23T14:16:38;6.07;;;2.23;;
23288;SDS011;11813;50.834;4.280;2023-03-23T14:19:28;8.60;;;2.20;;
23288;SDS011;11813;50.834;4.280;2023-03-23T14:21:55;10.57;;;2.17;;
23288;SDS011;11813;50.834;4.280;2023-03-23T14:24:29;6.20;;;2.00;;
23288;SDS011;11813;50.834;4.280;2023-03-23T14:27:16;7.83;;;2.53;;
23288;SDS011;11813;50.834;4.280;2023-03-23T14:29:44;7.13;;;3.00;;
23288;SDS011;11813;50.834;4.280;2023-03-23T14:32:13;10.63;;;2.77;;
23288;SDS011;11813;50.834;4.280;2023-03-23T14:34:41;7.60;;;3.03;;
23288;SDS011;11813;50.834;4.280;2023-03-23T14:37:14;8.27;;;2.47;;
23288;SDS011;11813;50.834;4.280;2023-03-23T14:39:44;6.40;;;1.90;;
23288;SDS011;11813;50.834;4.280;2023-03-23T14:42:16;7.83;;;1.90;;
23288;SDS011;11813;50.834;4.280;2023-03-23T14:44:45;10.13;;;2.40;;
23288;SDS011;11813;50.834;4.280;2023-03-23T14:47:20;6.43;;;1.27;;
23288;SDS011;11813;50.834;4.280;2023-03-23T14:49:52;7.07;;;2.00;;
23288;SDS011;11813;50.834;4.280;2023-03-23T14:52:21;9.37;;;2.20;;
23288;SDS011;11813;50.834;4.280;2023-03-23T14:54:47;5.23;;;2.00;;
23288;SDS011;11813;50.834;4.280;2023-03-23T14:57:17;4.50;;;2.07;;
23288;SDS011;11813;50.834;4.280;2023-03-23T14:59:53;10.03;;;2.20;;
23288;SDS011;11813;50.834;4.280;2023-03-23T15:02:22;7.80;;;2.13;;
23288;SDS011;11813;50.834;4.280;2023-03-23T15:04:53;8.53;;;2.47;;
23288;SDS011;11813;50.834;4.280;2023-03-23T15:07:26;6.37;;;1.83;;
23288;SDS011;11813;50.834;4.280;2023-03-23T15:09:57;8.37;;;2.23;;
23288;SDS011;11813;50.834;4.280;2023-03-23T15:12:25;8.30;;;2.60;;
23288;SDS011;11813;50.834;4.280;2023-03-23T15:14:55;7.87;;;2.17;;
23288;SDS011;11813;50.834;4.280;2023-03-23T15:17:24;9.57;;;2.37;;
23288;SDS011;11813;50.834;4.280;2023-03-23T15:19:52;9.30;;;2.87;;
23288;SDS011;11813;50.834;4.280;2023-03-23T15:22:23;14.43;;;3.00;;
23288;SDS011;11813;50.834;4.280;2023-03-23T15:24:51;9.63;;;3.30;;
23288;SDS011;11813;50.834;4.280;2023-03-23T15:27:30;13.00;;;2.80;;
23288;SDS011;11813;50.834;4.280;2023-03-23T15:29:59;11.60;;;3.13;;
23288;SDS011;11813;50.834;4.280;2023-03-23T15:32:38;10.10;;;3.87;;
23288;SDS011;11813;50.834;4.280;2023-03-23T15:35:12;12.50;;;4.80;;
23288;SDS011;11813;50.834;4.280;2023-03-23T15:37:47;18.13;;;4.63;;
23288;SDS011;11813;50.834;4.280;2023-03-23T15:40:25;14.63;;;4.97;;
23288;SDS011;11813;50.834;4.280;2023-03-23T15:43:14;13.60;;;4.77;;
23288;SDS011;11813;50.834;4.280;2023-03-23T15:48:25;10.87;;;4.50;;
23288;SDS011;11813;50.834;4.280;2023-03-23T15:50:52;11.13;;;3.80;;
23288;SDS011;11813;50.834;4.280;2023-03-23T15:53:29;12.37;;;4.40;;
23288;SDS011;11813;50.834;4.280;2023-03-23T15:56:03;11.27;;;4.10;;
23288;SDS011;11813;50.834;4.280;2023-03-23T15:58:30;7.60;;;3.47;;
23288;SDS011;11813;50.834;4.280;2023-03-23T16:00:57;9.50;;;2.60;;
23288;SDS011;11813;50.834;4.280;2023-03-23T16:03:45;4.90;;;2.13;;
23288;SDS011;11813;50.834;4.280;2023-03-23T16:06:30;6.27;;;2.30;;
23288;SDS011;11813;50.834;4.280;2023-03-23T16:08:57;8.43;;;2.47;;
23288;SDS011;11813;50.834;4.280;2023-03-23T16:11:24;10.37;;;2.50;;
23288;SDS011;11813;50.834;4.280;2023-03-23T16:13:51;3.87;;;1.57;;
23288;SDS011;11813;50.834;4.280;2023-03-23T16:16:18;7.53;;;1.60;;
23288;SDS011;11813;50.834;4.280;2023-03-23T16:18:47;6.47;;;1.93;;
23288;SDS011;11813;50.834;4.280;2023-03-23T16:21:13;7.70;;;1.80;;
23288;SDS011;11813;50.834;4.280;2023-03-23T16:23:39;7.60;;;1.90;;
23288;SDS011;11813;50.834;4.280;2023-03-23T16:26:07;6.17;;;2.70;;
23288;SDS011;11813;50.834;4.280;2023-03-23T16:28:32;10.23;;;2.27;;
23288;SDS011;11813;50.834;4.280;2023-03-23T16:30:58;5.70;;;1.90;;
23288;SDS011;11813;50.834;4.280;2023-03-23T16:33:24;6.10;;;1.63;;
23288;SDS011;11813;50.834;4.280;2023-03-23T16:35:49;8.80;;;2.73;;
23288;SDS011;11813;50.834;4.280;2023-03-23T16:38:15;4.53;;;2.03;;
23288;SDS011;11813;50.834;4.280;2023-03-23T16:40:42;9.10;;;3.00;;
23288;SDS011;11813;50.834;4.280;2023-03-23T16:43:09;8.67;;;3.30;;
23288;SDS011;11813;50.834;4.280;2023-03-23T16:45:36;14.73;;;5.10;;
23288;SDS011;11813;50.834;4.280;2023-03-23T16:48:03;14.73;;;5.33;;
23288;SDS011;11813;50.834;4.280;2023-03-23T16:50:29;18.00;;;6.10;;
23288;SDS011;11813;50.834;4.280;2023-03-23T16:52:54;13.47;;;5.40;;
23288;SDS011;11813;50.834;4.280;2023-03-23T16:55:20;13.63;;;5.40;;
23288;SDS011;11813;50.834;4.280;2023-03-23T16:57:46;11.20;;;4.00;;
23288;SDS011;11813;50.834;4.280;2023-03-23T17:00:14;14.03;;;3.60;;
23288;SDS011;11813;50.834;4.280;2023-03-23T17:02:44;8.73;;;3.00;;
23288;SDS011;11813;50.834;4.280;2023-03-23T17:05:10;8.50;;;3.20;;
23288;SDS011;11813;50.834;4.280;2023-03-23T17:07:37;13.03;;;3.00;;
23288;SDS011;11813;50.834;4.280;2023-03-23T17:10:03;11.57;;;2.93;;
23288;SDS011;11813;50.834;4.280;2023-03-23T17:12:30;13.93;;;3.23;;
23288;SDS011;11813;50.834;4.280;2023-03-23T17:14:56;9.10;;;3.43;;